Time;durP1;ratioP1;P1;durP2;ratioP2;P2;SDS_P1;SDS_P2;PMS_P1;PMS_P2;Temp;Humidity;BMP_temperature;BMP_pressure;BME280_temperature;BME280_humidity;BME280_pressure;Samples;Min_cycle;Max_cycle;Signal;HPM_P1;HPM_P2
2022/10/06 00:00:31;;;;;;;7.47;1.38;;;15.10;99.90;;;;;;5012662;28;20116;-64
2022/10/06 00:02:57;;;;;;;2.47;0.88;;;14.90;99.90;;;;;;5013355;28;20030;-63
2022/10/06 00:05:22;;;;;;;3.22;0.70;;;14.80;99.90;;;;;;5009403;28;20576;-64
2022/10/06 00:07:48;;;;;;;4.47;0.90;;;14.80;99.90;;;;;;5008110;28;20512;-64
2022/10/06 00:10:14;;;;;;;7.93;1.30;;;14.80;99.90;;;;;;5012509;28;20388;-64
2022/10/06 00:12:45;;;;;;;9.90;1.63;;;14.70;99.90;;;;;;5010110;28;20026;-64
2022/10/06 00:15:13;;;;;;;4.60;1.38;;;14.70;99.90;;;;;;5005217;28;20089;-63
2022/10/06 00:17:39;;;;;;;4.10;1.20;;;14.70;99.90;;;;;;5006544;28;20026;-64
2022/10/06 00:20:06;;;;;;;4.43;1.45;;;14.70;99.90;;;;;;5007461;28;20021;-63
2022/10/06 00:22:36;;;;;;;3.70;1.42;;;14.60;99.90;;;;;;5003465;28;20148;-64
2022/10/06 00:25:02;;;;;;;3.17;1.50;;;14.60;99.90;;;;;;5007860;28;20026;-64
2022/10/06 00:27:42;;;;;;;7.47;1.00;;;14.60;99.90;;;;;;4998382;28;20463;-65
2022/10/06 00:30:13;;;;;;;3.03;1.35;;;14.60;99.90;;;;;;4997086;28;20030;-65
2022/10/06 00:32:39;;;;;;;4.05;1.13;;;14.60;99.90;;;;;;5000982;28;20494;-65
2022/10/06 00:35:06;;;;;;;10.20;1.08;;;14.50;99.90;;;;;;5009586;28;20789;-65
2022/10/06 00:37:36;;;;;;;6.60;1.75;;;14.60;99.90;;;;;;5008724;28;20121;-66
2022/10/06 00:40:08;;;;;;;3.17;1.02;;;14.50;99.90;;;;;;5008060;28;20113;-64
2022/10/06 00:42:47;;;;;;;6.63;0.95;;;14.60;99.90;;;;;;4998019;28;20018;-64
2022/10/06 00:45:14;;;;;;;4.80;1.10;;;14.60;99.90;;;;;;5010246;28;20030;-64
2022/10/06 00:47:40;;;;;;;7.80;1.55;;;14.60;99.90;;;;;;5010079;28;20018;-64
2022/10/06 00:50:08;;;;;;;9.80;1.25;;;14.60;99.90;;;;;;4999962;28;20030;-65
2022/10/06 00:52:34;;;;;;;7.97;1.50;;;14.50;99.90;;;;;;5008901;28;20040;-65
2022/10/06 00:55:02;;;;;;;5.03;1.23;;;14.50;99.90;;;;;;4999671;28;20431;-65
2022/10/06 00:57:28;;;;;;;5.03;1.10;;;14.40;99.90;;;;;;5000927;28;20022;-65
2022/10/06 00:59:54;;;;;;;4.32;1.25;;;14.40;99.90;;;;;;5002373;28;20026;-64
2022/10/06 01:02:32;;;;;;;10.05;1.00;;;14.40;99.90;;;;;;4993988;28;20027;-64
2022/10/06 01:05:02;;;;;;;1.40;0.73;;;14.50;99.90;;;;;;4998539;28;20112;-64
2022/10/06 01:07:29;;;;;;;4.78;1.10;;;14.40;99.90;;;;;;5009473;28;20030;-64
2022/10/06 01:09:57;;;;;;;6.82;0.98;;;14.50;99.90;;;;;;4995186;28;20038;-66
2022/10/06 01:12:26;;;;;;;7.00;1.15;;;14.50;99.90;;;;;;5003146;28;20037;-64
2022/10/06 01:14:52;;;;;;;6.13;1.08;;;14.40;99.90;;;;;;5008822;28;20022;-64
2022/10/06 01:17:41;;;;;;;4.78;0.93;;;14.50;99.90;;;;;;5004539;28;20039;-66
2022/10/06 01:20:10;;;;;;;5.80;0.98;;;14.50;99.90;;;;;;5001985;28;20037;-65
2022/10/06 01:22:39;;;;;;;11.25;1.23;;;14.50;99.90;;;;;;4996554;28;20508;-65
2022/10/06 01:25:07;;;;;;;6.65;0.95;;;14.50;99.90;;;;;;5003876;28;20068;-65
2022/10/06 01:27:35;;;;;;;4.47;0.70;;;14.50;99.90;;;;;;5008563;28;20115;-64
2022/10/06 01:30:01;;;;;;;6.22;0.90;;;14.40;99.90;;;;;;5008392;28;20522;-64
2022/10/06 01:32:33;;;;;;;4.75;0.90;;;14.40;99.90;;;;;;5006843;28;20164;-64
2022/10/06 01:34:59;;;;;;;8.52;1.40;;;14.40;99.90;;;;;;5002984;28;20404;-65
2022/10/06 01:37:25;;;;;;;7.63;1.17;;;14.40;99.90;;;;;;5006229;28;20022;-66
2022/10/06 01:39:50;;;;;;;6.93;1.30;;;14.40;99.90;;;;;;5003345;28;20041;-65
2022/10/06 01:42:16;;;;;;;6.15;1.13;;;14.40;99.90;;;;;;5009211;28;20030;-65
2022/10/06 01:44:41;;;;;;;5.25;1.23;;;14.40;99.90;;;;;;4998258;28;20392;-66
2022/10/06 01:47:07;;;;;;;8.57;1.25;;;14.30;99.90;;;;;;5009765;28;20022;-65
2022/10/06 01:49:33;;;;;;;16.45;1.88;;;14.30;99.90;;;;;;5001915;28;20041;-65
2022/10/06 01:51:58;;;;;;;7.57;1.23;;;14.30;99.90;;;;;;5002969;28;20026;-64
2022/10/06 01:54:24;;;;;;;11.18;1.48;;;14.20;99.90;;;;;;5006456;28;20084;-65
2022/10/06 01:56:49;;;;;;;9.38;1.55;;;14.20;99.90;;;;;;5004293;28;20030;-64
2022/10/06 01:59:15;;;;;;;13.40;1.58;;;14.20;99.90;;;;;;5008613;28;20034;-64
2022/10/06 02:01:41;;;;;;;4.78;1.13;;;14.20;99.90;;;;;;5008436;28;20496;-64
2022/10/06 02:04:06;;;;;;;9.98;1.58;;;14.20;99.90;;;;;;5010191;28;20137;-64
2022/10/06 02:06:32;;;;;;;17.20;2.05;;;14.20;99.90;;;;;;5009141;28;20092;-64
2022/10/06 02:08:59;;;;;;;11.85;1.38;;;14.10;99.90;;;;;;5012696;28;20028;-65
2022/10/06 02:11:25;;;;;;;2.78;1.00;;;14.10;99.90;;;;;;5006061;28;20030;-64
2022/10/06 02:13:51;;;;;;;11.30;1.25;;;14.10;99.90;;;;;;5004244;28;20029;-65
2022/10/06 02:16:17;;;;;;;12.73;1.95;;;14.10;99.90;;;;;;5007447;28;20519;-64
2022/10/06 02:18:43;;;;;;;7.82;1.25;;;14.10;99.90;;;;;;4997466;28;20073;-64
2022/10/06 02:21:15;;;;;;;8.57;1.23;;;14.00;99.90;;;;;;5002282;28;20413;-66
2022/10/06 02:23:40;;;;;;;15.48;1.92;;;14.00;99.90;;;;;;5005583;28;20018;-64
2022/10/06 02:26:06;;;;;;;11.95;2.10;;;14.00;99.90;;;;;;5002315;28;20401;-64
2022/10/06 02:28:32;;;;;;;12.00;1.63;;;13.90;99.90;;;;;;5007789;28;20087;-62
2022/10/06 02:31:02;;;;;;;5.72;1.20;;;14.00;99.90;;;;;;5006639;28;20408;-65
2022/10/06 02:33:27;;;;;;;12.88;1.85;;;13.90;99.90;;;;;;5012557;28;20049;-66
2022/10/06 02:35:57;;;;;;;8.50;1.33;;;13.90;99.90;;;;;;5012852;28;20052;-64
2022/10/06 02:38:23;;;;;;;12.63;1.50;;;13.90;99.90;;;;;;5011659;28;20569;-65
2022/10/06 02:40:49;;;;;;;10.35;1.45;;;13.90;99.90;;;;;;5006289;28;20407;-64
2022/10/06 02:43:15;;;;;;;11.48;1.60;;;13.80;99.90;;;;;;5009507;28;20021;-64
2022/10/06 02:45:42;;;;;;;6.70;1.20;;;13.80;99.90;;;;;;5010765;28;20033;-64
2022/10/06 02:48:10;;;;;;;11.75;1.35;;;13.80;99.90;;;;;;5012090;28;20022;-64
2022/10/06 02:50:37;;;;;;;5.47;1.38;;;13.70;99.90;;;;;;5011113;28;20088;-64
2022/10/06 02:53:05;;;;;;;14.30;1.48;;;13.70;99.90;;;;;;5011208;28;20121;-65
2022/10/06 02:55:31;;;;;;;11.63;1.35;;;13.70;99.90;;;;;;5002846;28;20025;-66
2022/10/06 02:57:56;;;;;;;19.88;1.60;;;13.70;99.90;;;;;;5008101;28;20076;-64
2022/10/06 03:00:22;;;;;;;16.08;2.38;;;13.70;99.90;;;;;;5011428;28;20033;-64
2022/10/06 03:02:47;;;;;;;13.38;1.33;;;13.70;99.90;;;;;;5010701;28;20026;-64
2022/10/06 03:05:13;;;;;;;17.23;1.80;;;13.70;99.90;;;;;;5008656;28;20036;-62
2022/10/06 03:07:39;;;;;;;15.10;1.67;;;13.60;99.90;;;;;;4996532;28;20029;-64
2022/10/06 03:10:05;;;;;;;13.38;1.70;;;13.60;99.90;;;;;;5004254;28;20040;-65
2022/10/06 03:12:30;;;;;;;8.90;1.20;;;13.60;99.90;;;;;;5000552;28;20041;-66
2022/10/06 03:14:56;;;;;;;12.13;1.55;;;13.50;99.90;;;;;;5005966;28;20563;-65
2022/10/06 03:17:21;;;;;;;8.25;1.38;;;13.50;99.90;;;;;;5007667;28;20557;-65
2022/10/06 03:19:47;;;;;;;12.55;1.58;;;13.40;99.90;;;;;;5007293;28;20037;-65
2022/10/06 03:22:12;;;;;;;19.25;2.47;;;13.40;99.90;;;;;;5005470;28;20057;-65
2022/10/06 03:24:38;;;;;;;7.82;1.42;;;13.40;99.90;;;;;;4998290;28;20026;-64
2022/10/06 03:27:04;;;;;;;17.20;2.45;;;13.30;99.90;;;;;;5002138;28;20387;-64
2022/10/06 03:29:29;;;;;;;17.88;2.13;;;13.30;99.90;;;;;;5002752;28;20064;-66
2022/10/06 03:31:56;;;;;;;10.30;1.27;;;13.30;99.90;;;;;;5005519;28;20040;-65
2022/10/06 03:34:22;;;;;;;16.00;1.70;;;13.20;99.90;;;;;;5008731;28;20511;-65
2022/10/06 03:36:48;;;;;;;12.88;1.25;;;13.20;99.90;;;;;;4995235;28;20027;-65
2022/10/06 03:39:13;;;;;;;10.35;1.58;;;13.20;99.90;;;;;;5004166;28;20389;-66
2022/10/06 03:41:39;;;;;;;18.95;2.58;;;13.10;99.90;;;;;;5008272;28;20033;-65
2022/10/06 03:44:05;;;;;;;10.98;1.42;;;13.10;99.90;;;;;;5003071;28;20121;-65
2022/10/06 03:46:33;;;;;;;15.93;1.67;;;13.10;99.90;;;;;;5005973;28;20058;-64
2022/10/06 03:49:00;;;;;;;18.63;2.90;;;13.10;99.90;;;;;;5002642;28;20088;-65
2022/10/06 03:51:30;;;;;;;16.38;2.13;;;13.00;99.90;;;;;;5004203;28;20105;-64
2022/10/06 03:53:56;;;;;;;12.23;1.90;;;13.00;99.90;;;;;;5001794;28;20128;-65
2022/10/06 03:56:30;;;;;;;23.05;1.85;;;13.00;99.90;;;;;;4995352;28;20041;-65
2022/10/06 03:59:01;;;;;;;11.15;1.58;;;13.00;99.90;;;;;;4999069;28;20042;-65
2022/10/06 04:01:29;;;;;;;18.63;1.98;;;13.00;99.90;;;;;;5006455;28;20034;-64
2022/10/06 04:03:57;;;;;;;21.02;2.42;;;13.00;99.90;;;;;;5003184;28;20645;-65
2022/10/06 04:06:24;;;;;;;14.60;1.30;;;13.00;99.90;;;;;;5008259;28;20110;-65
2022/10/06 04:08:51;;;;;;;23.58;1.90;;;13.00;99.90;;;;;;5010609;28;20022;-66
2022/10/06 04:11:29;;;;;;;12.27;1.30;;;13.00;99.90;;;;;;5007462;28;20444;-64
2022/10/06 04:14:06;;;;;;;17.25;1.92;;;13.00;99.90;;;;;;5005216;28;20054;-65
2022/10/06 04:16:36;;;;;;;19.75;1.63;;;13.00;99.90;;;;;;5005284;28;20037;-64
2022/10/06 04:19:05;;;;;;;18.92;1.80;;;12.90;99.90;;;;;;4997744;28;20547;-66
2022/10/06 04:21:35;;;;;;;19.17;1.15;;;12.90;99.90;;;;;;5005530;28;20052;-65
2022/10/06 04:24:01;;;;;;;23.65;2.22;;;12.90;99.90;;;;;;5006725;28;20112;-65
2022/10/06 04:26:29;;;;;;;15.13;1.40;;;12.80;99.90;;;;;;5005021;28;20101;-67
2022/10/06 04:28:55;;;;;;;11.70;1.30;;;12.90;99.90;;;;;;5004013;28;20033;-65
2022/10/06 04:31:31;;;;;;;15.07;1.27;;;12.80;99.90;;;;;;5008979;28;20026;-65
2022/10/06 04:33:59;;;;;;;9.88;1.90;;;12.80;99.90;;;;;;5008632;28;20022;-64
2022/10/06 04:36:27;;;;;;;14.50;1.83;;;12.80;99.90;;;;;;5002493;28;20045;-65
2022/10/06 04:38:57;;;;;;;11.52;1.50;;;12.80;99.90;;;;;;5009418;28;20026;-64
2022/10/06 04:41:25;;;;;;;18.30;1.85;;;12.70;99.90;;;;;;5009546;28;20061;-64
2022/10/06 04:43:52;;;;;;;16.10;1.63;;;12.70;99.90;;;;;;5002791;28;20032;-65
2022/10/06 04:46:19;;;;;;;13.13;1.30;;;12.70;99.90;;;;;;5051876;22;20125;-62
2022/10/06 04:48:45;;;;;;;12.27;1.33;;;12.70;99.90;;;;;;5048467;28;20158;-62
2022/10/06 04:51:13;;;;;;;19.27;1.80;;;12.60;99.90;;;;;;5051593;28;20028;-63
2022/10/06 04:53:39;;;;;;;14.25;1.52;;;12.50;99.90;;;;;;5051378;28;20025;-59
2022/10/06 04:56:09;;;;;;;16.70;2.33;;;12.50;99.90;;;;;;5049647;28;20536;-63
2022/10/06 04:58:40;;;;;;;20.08;1.50;;;12.50;99.90;;;;;;5050582;28;20117;-63
2022/10/06 05:01:24;;;;;;;21.38;2.95;;;12.30;99.90;;;;;;5047072;28;20059;-60
2022/10/06 05:03:51;;;;;;;;;;;12.30;99.90;;;;;;5049971;28;20029;-63
2022/10/06 05:06:19;;;;;;;11.90;1.42;;;12.20;99.90;;;;;;5052203;28;19908;-61
2022/10/06 05:08:50;;;;;;;22.70;2.78;;;12.10;99.90;;;;;;5050393;28;20499;-63
2022/10/06 05:11:16;;;;;;;13.57;1.42;;;12.00;99.90;;;;;;5051490;28;20043;-61
2022/10/06 05:13:42;;;;;;;20.05;1.70;;;12.10;99.90;;;;;;5052227;28;20486;-62
2022/10/06 05:16:11;;;;;;;9.98;1.35;;;11.90;99.90;;;;;;5041267;28;20037;-64
2022/10/06 05:18:36;;;;;;;16.65;1.88;;;12.00;99.90;;;;;;5045400;28;20032;-61
2022/10/06 05:21:11;;;;;;;20.45;2.10;;;11.90;99.90;;;;;;5048242;28;20437;-59
2022/10/06 05:23:38;;;;;;;22.20;2.40;;;11.70;99.90;;;;;;5044603;28;20377;-62
2022/10/06 05:26:04;;;;;;;14.98;2.13;;;11.60;99.90;;;;;;5046404;28;20017;-60
2022/10/06 05:28:31;;;;;;;16.23;2.03;;;11.50;99.90;;;;;;5050042;28;20107;-60
2022/10/06 05:31:01;;;;;;;11.98;1.38;;;11.40;99.90;;;;;;5047506;28;20548;-59
2022/10/06 05:33:29;;;;;;;18.33;2.22;;;11.30;99.90;;;;;;5055724;28;20035;-60
2022/10/06 05:36:00;;;;;;;14.88;1.77;;;11.10;99.90;;;;;;5052694;28;20025;-60
2022/10/06 05:38:27;;;;;;;13.90;1.88;;;11.10;99.90;;;;;;5051819;28;20033;-62
2022/10/06 05:41:10;;;;;;;17.98;1.63;;;11.00;99.90;;;;;;5052474;28;20109;-65
2022/10/06 05:43:36;;;;;;;17.58;1.85;;;10.90;99.90;;;;;;5049924;28;20074;-62
2022/10/06 05:46:04;;;;;;;11.40;1.83;;;10.80;99.90;;;;;;5052595;28;20037;-60
2022/10/06 05:48:30;;;;;;;16.75;3.30;;;10.90;99.90;;;;;;5054920;28;20025;-59
2022/10/06 05:51:07;;;;;;;25.40;2.22;;;10.80;99.90;;;;;;5052396;28;20029;-61
2022/10/06 05:53:34;;;;;;;15.75;1.83;;;10.90;99.90;;;;;;5058676;28;20033;-62
2022/10/06 05:56:09;;;;;;;18.05;2.22;;;11.00;99.90;;;;;;5050920;28;20115;-59
2022/10/06 05:58:36;;;;;;;12.23;2.80;;;10.80;99.90;;;;;;5047659;28;20021;-62
2022/10/06 06:01:29;;;;;;;22.80;1.95;;;10.80;99.90;;;;;;5052333;28;20021;-61
2022/10/06 06:03:59;;;;;;;17.55;2.45;;;10.80;99.90;;;;;;5042288;28;20029;-57
2022/10/06 06:06:30;;;;;;;21.25;2.20;;;10.80;99.90;;;;;;5053557;28;20132;-61
2022/10/06 06:09:03;;;;;;;14.20;2.10;;;10.80;99.90;;;;;;5055792;28;20036;-61
2022/10/06 06:11:30;;;;;;;13.23;1.60;;;10.90;99.90;;;;;;5057941;28;20025;-60
2022/10/06 06:13:56;;;;;;;36.47;3.33;;;10.80;99.90;;;;;;5050443;28;20035;-61
2022/10/06 06:16:22;;;;;;;25.63;3.05;;;10.80;99.90;;;;;;5049678;28;20375;-61
2022/10/06 06:18:48;;;;;;;25.17;2.92;;;10.90;99.90;;;;;;5050748;28;20032;-61
2022/10/06 06:21:14;;;;;;;15.32;2.00;;;11.00;99.90;;;;;;5057539;28;20455;-61
2022/10/06 06:23:46;;;;;;;11.73;2.30;;;11.10;99.90;;;;;;5054538;28;20486;-61
2022/10/06 06:26:14;;;;;;;14.15;2.08;;;11.20;99.90;;;;;;5056453;28;20259;-60
2022/10/06 06:28:40;;;;;;;17.15;2.65;;;11.20;99.90;;;;;;5052653;28;20051;-61
2022/10/06 06:31:11;;;;;;;19.23;3.03;;;11.40;99.90;;;;;;5058345;28;20033;-62
2022/10/06 06:33:39;;;;;;;22.35;2.40;;;11.40;99.90;;;;;;5053801;28;20040;-65
2022/10/06 06:36:25;;;;;;;20.95;2.15;;;11.50;99.90;;;;;;5048480;28;20029;-61
2022/10/06 06:38:54;;;;;;;19.63;1.80;;;11.60;99.90;;;;;;5053802;28;20432;-62
2022/10/06 06:41:28;;;;;;;22.25;2.38;;;11.50;99.90;;;;;;5059527;28;20044;-61
2022/10/06 06:43:54;;;;;;;11.85;1.85;;;11.50;99.90;;;;;;5045248;28;20112;-61
2022/10/06 06:46:24;;;;;;;28.23;2.65;;;11.40;99.90;;;;;;5056674;28;20044;-60
2022/10/06 06:48:51;;;;;;;13.88;1.85;;;11.30;99.90;;;;;;5050122;28;20047;-60
2022/10/06 06:51:20;;;;;;;30.48;3.03;;;11.30;99.90;;;;;;5051512;28;20037;-61
2022/10/06 06:53:45;;;;;;;21.20;1.88;;;11.30;99.90;;;;;;5045870;28;20116;-59
2022/10/06 06:56:11;;;;;;;18.58;1.85;;;11.30;99.90;;;;;;5049686;28;20099;-62
2022/10/06 06:58:36;;;;;;;20.50;2.33;;;11.30;99.90;;;;;;5053083;28;20520;-61
2022/10/06 07:01:12;;;;;;;25.95;2.83;;;11.30;99.90;;;;;;5050206;28;20029;-61
2022/10/06 07:03:41;;;;;;;14.93;2.08;;;11.40;99.90;;;;;;5054480;28;20020;-62
2022/10/06 07:06:09;;;;;;;25.50;1.95;;;11.40;99.90;;;;;;5047849;28;20552;-63
2022/10/06 07:08:37;;;;;;;20.45;1.80;;;11.50;99.90;;;;;;5058289;28;20506;-63
2022/10/06 07:11:13;;;;;;;16.45;2.17;;;11.60;99.90;;;;;;5052568;28;20073;-61
2022/10/06 07:13:39;;;;;;;19.52;2.75;;;11.80;99.90;;;;;;5049814;28;20057;-64
2022/10/06 07:27:02;;;;;;;25.92;2.22;;;12.30;99.90;;;;;;5048514;28;20326;-62
2022/10/06 07:29:27;;;;;;;16.35;1.58;;;12.30;99.90;;;;;;5055590;28;20052;-63
2022/10/06 07:31:53;;;;;;;20.15;1.85;;;12.40;99.90;;;;;;5055306;28;20078;-61
2022/10/06 07:34:20;;;;;;;20.63;3.03;;;12.40;99.90;;;;;;5051550;28;20364;-62
2022/10/06 07:36:49;;;;;;;19.60;2.58;;;12.50;99.90;;;;;;5050425;28;20032;-64
2022/10/06 07:39:14;;;;;;;25.05;2.13;;;12.50;99.90;;;;;;5050256;28;20052;-62
2022/10/06 07:41:40;;;;;;;24.05;2.53;;;12.60;99.90;;;;;;5044812;28;20080;-62
2022/10/06 07:44:05;;;;;;;19.65;2.08;;;12.70;99.90;;;;;;5048973;28;20383;-62
2022/10/06 07:46:32;;;;;;;21.05;2.00;;;12.80;99.90;;;;;;5053025;28;20494;-62
2022/10/06 07:48:58;;;;;;;26.08;2.22;;;12.80;99.90;;;;;;5057943;28;20020;-62
2022/10/06 07:51:26;;;;;;;18.58;2.78;;;12.80;99.90;;;;;;5049176;28;20505;-62
2022/10/06 07:53:52;;;;;;;12.75;2.38;;;12.90;99.90;;;;;;5051910;28;20029;-61
2022/10/06 07:56:19;;;;;;;19.77;2.45;;;13.00;99.90;;;;;;5053384;28;20029;-64
2022/10/06 07:58:46;;;;;;;20.02;1.98;;;13.00;99.90;;;;;;5055555;28;20108;-63
2022/10/06 08:01:13;;;;;;;21.95;2.20;;;13.00;99.90;;;;;;5052348;28;20025;-60
2022/10/06 08:03:40;;;;;;;24.30;2.13;;;13.10;99.90;;;;;;5048230;28;20021;-60
2022/10/06 08:06:13;;;;;;;18.75;2.38;;;13.10;99.90;;;;;;5049545;28;20517;-59
2022/10/06 08:08:39;;;;;;;20.27;2.08;;;13.20;99.90;;;;;;5045360;28;20040;-62
2022/10/06 08:11:06;;;;;;;25.42;2.78;;;13.20;99.90;;;;;;5053471;28;20511;-59
2022/10/06 08:13:33;;;;;;;22.70;2.63;;;13.30;99.90;;;;;;5049728;28;20142;-60
2022/10/06 08:16:17;;;;;;;19.13;3.15;;;13.30;99.90;;;;;;5048238;28;20029;-60
2022/10/06 08:18:47;;;;;;;23.95;2.78;;;13.40;99.90;;;;;;5049056;28;20032;-60
2022/10/06 08:21:15;;;;;;;15.60;1.88;;;13.40;99.90;;;;;;5052340;28;20119;-60
2022/10/06 08:23:42;;;;;;;26.30;3.40;;;13.50;99.90;;;;;;5054972;28;20024;-61
2022/10/06 08:26:12;;;;;;;15.43;2.20;;;13.50;99.90;;;;;;5049088;28;20107;-62
2022/10/06 08:28:38;;;;;;;18.02;2.42;;;13.60;99.90;;;;;;5051218;28;20035;-63
2022/10/06 08:31:06;;;;;;;22.40;2.75;;;13.70;99.90;;;;;;5049534;28;20021;-63
2022/10/06 08:33:33;;;;;;;26.60;3.47;;;13.70;99.90;;;;;;5048620;28;20028;-62
2022/10/06 08:36:04;;;;;;;23.88;3.10;;;13.80;99.90;;;;;;5054821;28;20060;-61
2022/10/06 08:38:30;;;;;;;21.60;2.97;;;13.90;99.90;;;;;;5052376;28;20136;-65
2022/10/06 08:40:56;;;;;;;22.25;2.63;;;14.00;99.90;;;;;;5051505;28;20174;-60
2022/10/06 08:43:23;;;;;;;25.52;2.80;;;14.00;99.90;;;;;;5056560;28;20550;-60
2022/10/06 08:45:57;;;;;;;26.20;2.85;;;14.10;99.90;;;;;;5054692;28;20397;-62
2022/10/06 08:48:25;;;;;;;21.83;2.50;;;14.10;99.90;;;;;;5047450;28;20033;-62
2022/10/06 08:51:06;;;;;;;22.55;2.60;;;14.20;99.90;;;;;;5051783;28;20025;-61
2022/10/06 08:53:35;;;;;;;19.20;2.50;;;14.30;99.90;;;;;;5048845;28;20036;-62
2022/10/06 08:56:30;;;;;;;28.13;2.28;;;14.30;99.90;;;;;;5050592;28;20397;-63
2022/10/06 08:58:58;;;;;;;25.70;2.72;;;14.40;99.90;;;;;;5054387;28;20033;-63
2022/10/06 09:01:37;;;;;;;25.20;2.42;;;14.50;99.90;;;;;;5051597;28;20045;-61
2022/10/06 09:04:06;;;;;;;17.60;1.88;;;14.50;99.90;;;;;;5047411;28;20052;-63
2022/10/06 09:07:03;;;;;;;15.80;2.38;;;14.60;99.90;;;;;;5049864;28;20024;-62
2022/10/06 09:09:43;;;;;;;20.48;3.65;;;14.70;99.90;;;;;;5049302;28;20854;-63
2022/10/06 09:12:30;;;;;;;22.08;2.60;;;14.90;99.90;;;;;;5048588;28;20029;-64
2022/10/06 09:15:35;;;;;;;27.77;3.35;;;14.90;99.90;;;;;;5054170;28;20021;-63
2022/10/06 09:18:21;;;;;;;14.05;1.80;;;14.90;99.90;;;;;;5045719;28;20079;-61
2022/10/06 09:21:00;;;;;;;17.25;2.90;;;15.00;99.90;;;;;;5052299;28;20036;-61
2022/10/06 09:23:48;;;;;;;20.25;2.22;;;15.00;99.90;;;;;;5060455;28;20435;-61
2022/10/06 09:26:21;;;;;;;21.70;2.72;;;15.10;99.90;;;;;;5055086;28;20112;-60
2022/10/06 09:28:47;;;;;;;20.45;2.13;;;15.10;99.90;;;;;;5050969;28;20017;-61
2022/10/06 09:31:18;;;;;;;19.40;2.22;;;15.10;99.90;;;;;;5051246;28;20033;-62
2022/10/06 09:33:44;;;;;;;15.77;2.08;;;15.10;99.90;;;;;;5056101;28;20032;-63
2022/10/06 09:36:11;;;;;;;15.52;2.33;;;15.20;99.90;;;;;;5057736;28;20105;-62
2022/10/06 09:38:52;;;;;;;16.85;2.47;;;15.40;99.90;;;;;;5049818;28;20025;-62
2022/10/06 09:41:24;;;;;;;16.05;1.98;;;15.40;99.90;;;;;;5056110;28;20561;-62
2022/10/06 09:43:55;;;;;;;13.30;1.80;;;15.50;99.90;;;;;;5056359;28;20173;-63
2022/10/06 09:46:30;;;;;;;12.38;1.90;;;15.70;99.90;;;;;;5049408;28;20421;-63
2022/10/06 09:49:16;;;;;;;14.18;1.60;;;15.80;99.90;;;;;;5050842;28;20017;-63
2022/10/06 09:51:58;;;;;;;20.90;1.85;;;15.80;99.90;;;;;;5051148;28;20028;-60
2022/10/06 09:54:24;;;;;;;9.82;1.50;;;15.80;99.90;;;;;;5053044;28;20441;-59
2022/10/06 09:56:52;;;;;;;10.82;2.45;;;16.00;99.90;;;;;;5056407;28;20107;-62
2022/10/06 09:59:21;;;;;;;11.32;1.52;;;15.70;99.90;;;;;;5053130;28;20035;-63
2022/10/06 10:01:54;;;;;;;13.52;1.50;;;15.90;99.90;;;;;;5056128;28;20036;-63
2022/10/06 10:04:30;;;;;;;9.02;1.15;;;15.90;99.90;;;;;;5059686;28;20016;-63
2022/10/06 10:07:18;;;;;;;10.40;1.45;;;16.10;99.90;;;;;;5055109;28;20022;-63
2022/10/06 10:09:44;;;;;;;9.05;1.33;;;16.20;99.90;;;;;;5060993;28;20536;-61
2022/10/06 10:12:29;;;;;;;14.57;1.58;;;16.30;99.90;;;;;;5055614;28;20075;-62
2022/10/06 10:15:00;;;;;;;10.63;1.45;;;16.30;99.90;;;;;;5048092;28;20037;-64
2022/10/06 10:17:31;;;;;;;7.93;1.25;;;16.50;99.90;;;;;;5051243;28;20036;-61
2022/10/06 10:19:59;;;;;;;12.07;1.42;;;16.50;99.90;;;;;;5053607;28;20069;-63
2022/10/06 10:22:39;;;;;;;31.05;2.17;;;16.40;99.90;;;;;;5044600;28;20078;-61
2022/10/06 10:25:16;;;;;;;14.50;1.70;;;16.50;99.90;;;;;;5046651;28;20635;-63
2022/10/06 10:28:02;;;;;;;10.98;1.02;;;16.50;99.90;;;;;;5054478;28;20040;-60
2022/10/06 10:30:32;;;;;;;14.60;1.40;;;16.70;99.90;;;;;;5049235;28;20454;-59
2022/10/06 10:33:05;;;;;;;15.18;1.70;;;16.90;99.90;;;;;;5051169;28;20490;-57
2022/10/06 10:35:36;;;;;;;11.00;1.77;;;17.00;99.90;;;;;;5052530;28;20553;-58
2022/10/06 10:38:12;;;;;;;11.57;1.80;;;17.20;99.90;;;;;;5052186;28;20035;-59
2022/10/06 10:41:00;;;;;;;5.38;1.23;;;17.30;99.90;;;;;;5060401;28;20814;-60
2022/10/06 10:43:50;;;;;;;15.02;2.38;;;17.30;99.90;;;;;;5052217;28;20036;-55
2022/10/06 10:46:23;;;;;;;15.35;1.83;;;17.20;99.90;;;;;;5055193;22;20103;-61
2022/10/06 10:48:55;;;;;;;16.58;1.88;;;17.30;99.90;;;;;;5031464;28;20013;-58
2022/10/06 10:51:30;;;;;;;22.25;2.10;;;17.30;99.90;;;;;;5010094;28;20037;-60
2022/10/06 10:54:04;;;;;;;11.25;1.65;;;17.50;99.90;;;;;;5030022;28;20032;-60
2022/10/06 10:56:32;;;;;;;12.32;1.90;;;17.60;99.90;;;;;;5019484;28;20041;-59
2022/10/06 10:59:16;;;;;;;5.60;1.08;;;17.70;99.90;;;;;;5009361;28;20089;-60
2022/10/06 11:01:50;;;;;;;16.67;1.70;;;17.70;99.90;;;;;;5014035;28;20368;-61
2022/10/06 11:04:15;;;;;;;20.48;1.63;;;17.80;99.90;;;;;;5015170;28;20646;-58
2022/10/06 11:07:12;;;;;;;11.23;1.55;;;17.50;99.90;;;;;;4998122;28;20052;-60
2022/10/06 11:09:54;;;;;;;12.70;2.28;;;17.60;99.90;;;;;;5011966;28;20064;-60
2022/10/06 11:12:47;;;;;;;15.38;1.40;;;17.70;99.90;;;;;;5013474;28;20084;-60
2022/10/06 11:15:20;;;;;;;11.80;1.67;;;18.00;99.90;;;;;;5012691;28;20404;-62
2022/10/06 11:17:49;;;;;;;10.13;1.50;;;18.10;99.90;;;;;;5011613;28;20030;-62
2022/10/06 11:20:29;;;;;;;14.57;1.63;;;18.50;99.90;;;;;;5012709;28;20026;-62
2022/10/06 11:23:01;;;;;;;13.70;1.63;;;18.60;99.90;;;;;;5011922;28;20427;-61
2022/10/06 11:25:38;;;;;;;8.90;1.08;;;18.60;99.90;;;;;;5012431;28;20018;-59
2022/10/06 11:28:13;;;;;;;20.52;1.60;;;18.80;99.90;;;;;;5008473;28;20072;-61
2022/10/06 11:31:02;;;;;;;10.30;1.20;;;18.80;99.90;;;;;;4994211;28;20048;-61
2022/10/06 11:33:39;;;;;;;11.20;1.35;;;19.00;99.90;;;;;;5012309;28;20017;-62
2022/10/06 11:36:14;;;;;;;11.60;1.40;;;18.90;99.90;;;;;;5009619;28;20018;-61
2022/10/06 11:38:51;;;;;;;10.82;1.27;;;18.80;99.90;;;;;;5007492;28;20025;-61
2022/10/06 11:41:26;;;;;;;9.45;1.40;;;19.00;99.90;;;;;;5013414;28;20454;-62
2022/10/06 11:44:14;;;;;;;13.15;1.63;;;19.10;99.90;;;;;;5000526;28;20108;-62
2022/10/06 11:46:53;;;;;;;9.48;1.30;;;19.30;99.90;;;;;;5011120;28;20057;-62
2022/10/06 11:49:27;;;;;;;12.88;1.65;;;19.50;99.90;;;;;;5008626;28;20029;-62
2022/10/06 11:52:13;;;;;;;10.48;1.33;;;19.70;99.90;;;;;;5011795;28;20026;-61
2022/10/06 11:54:39;;;;;;;24.80;1.92;;;19.40;99.90;;;;;;4971782;28;20030;-62
2022/10/06 11:57:22;;;;;;;11.65;1.65;;;19.40;99.90;;;;;;5011849;28;20024;-62
2022/10/06 11:59:50;;;;;;;8.93;1.20;;;19.70;99.90;;;;;;5009575;28;20022;-62
2022/10/06 12:02:33;;;;;;;9.13;1.42;;;20.10;99.90;;;;;;5022929;28;20021;-62
2022/10/06 12:05:08;;;;;;;14.02;1.70;;;20.20;99.90;;;;;;5005946;28;20024;-61
2022/10/06 12:07:56;;;;;;;11.45;1.30;;;20.00;99.90;;;;;;5006026;28;20034;-61
2022/10/06 12:10:27;;;;;;;9.63;1.77;;;19.80;99.90;;;;;;5012032;28;20052;-61
2022/10/06 12:13:06;;;;;;;9.00;1.15;;;19.90;99.90;;;;;;5011226;28;20032;-62
2022/10/06 12:15:45;;;;;;;7.38;1.55;;;19.90;99.90;;;;;;5011956;28;20050;-62
2022/10/06 12:18:42;;;;;;;12.10;1.45;;;20.00;99.90;;;;;;5001900;28;20040;-61
2022/10/06 12:21:10;;;;;;;8.23;1.00;;;20.10;99.90;;;;;;5010873;28;20029;-61
2022/10/06 12:24:18;;;;;;;5.93;1.00;;;20.00;99.90;;;;;;5011331;28;20029;-62
2022/10/06 12:26:50;;;;;;;17.88;1.55;;;20.00;99.90;;;;;;5009836;28;20073;-60
2022/10/06 12:29:56;;;;;;;8.55;1.40;;;20.30;99.90;;;;;;5011542;28;20046;-59
2022/10/06 12:32:31;;;;;;;8.30;1.45;;;20.30;99.90;;;;;;5011115;28;20029;-62
2022/10/06 12:35:38;;;;;;;14.13;1.65;;;20.50;99.90;;;;;;5010398;28;20100;-61
2022/10/06 12:38:25;;;;;;;8.82;1.00;;;20.50;99.90;;;;;;5010409;28;20052;-62
2022/10/06 12:40:54;;;;;;;6.72;1.63;;;20.70;99.90;;;;;;5006877;28;20032;-62
2022/10/06 12:43:22;;;;;;;8.80;1.20;;;20.80;99.90;;;;;;5011125;28;20025;-61
2022/10/06 12:45:54;;;;;;;9.82;1.30;;;20.90;99.90;;;;;;5011203;28;20022;-63
2022/10/06 12:48:32;;;;;;;10.43;1.55;;;20.90;99.90;;;;;;5011418;28;20109;-62
2022/10/06 12:51:11;;;;;;;12.90;1.38;;;20.70;99.90;;;;;;5012458;28;20026;-62
2022/10/06 12:53:48;;;;;;;8.27;1.40;;;21.00;99.90;;;;;;5010645;28;20038;-62
2022/10/06 12:56:30;;;;;;;10.48;1.65;;;20.50;99.90;;;;;;5008905;28;20022;-62
2022/10/06 12:58:56;;;;;;;11.68;1.45;;;20.80;99.90;;;;;;5005967;28;20109;-62
2022/10/06 13:01:24;;;;;;;10.60;1.58;;;20.80;99.90;;;;;;5010460;28;20033;-62
2022/10/06 13:03:52;;;;;;;12.15;1.10;;;20.60;99.90;;;;;;5011128;28;20030;-62
2022/10/06 13:06:24;;;;;;;11.52;1.73;;;20.60;99.90;;;;;;5012076;28;20384;-62
2022/10/06 13:09:16;;;;;;;4.60;1.00;;;20.80;99.90;;;;;;5009855;28;20026;-62
2022/10/06 13:11:41;;;;;;;8.70;1.25;;;20.80;99.90;;;;;;5008374;28;20040;-62